createdAt,value
2018-04-23T00:00:58.286Z,1000.49
2018-04-23T00:02:51.161Z,1000.48
2018-04-23T00:03:51.133Z,1000.45
2018-04-23T00:05:43.994Z,1000.43
2018-04-23T00:06:43.978Z,1000.45
2018-04-23T00:08:36.846Z,1000.42
2018-04-23T00:09:36.818Z,1000.41
2018-04-23T00:11:29.676Z,1000.39
2018-04-23T00:12:29.657Z,1000.41
2018-04-23T00:14:22.528Z,1000.37
2018-04-23T00:15:22.499Z,1000.36
2018-04-23T00:17:15.362Z,1000.38
2018-04-23T00:18:15.345Z,1000.38
2018-04-23T00:20:08.217Z,1000.34
2018-04-23T00:21:08.190Z,1000.34
2018-04-23T00:23:01.060Z,1000.33
2018-04-23T00:24:01.025Z,1000.33
2018-04-23T00:25:53.906Z,1000.37
2018-04-23T00:26:53.870Z,1000.31
2018-04-23T00:28:46.724Z,1000.38
2018-04-23T00:29:46.713Z,1000.36
2018-04-23T00:31:39.580Z,1000.34
2018-04-23T00:32:39.556Z,1000.31
2018-04-23T00:34:32.412Z,1000.31
2018-04-23T00:35:32.394Z,1000.29
2018-04-23T00:37:25.263Z,1000.29
2018-04-23T00:38:25.230Z,1000.28
2018-04-23T00:40:18.092Z,1000.29
2018-04-23T00:41:18.075Z,1000.26
2018-04-23T00:43:10.952Z,1000.32
2018-04-23T00:44:10.914Z,1000.30
2018-04-23T00:46:03.764Z,1000.27
2018-04-23T00:47:03.753Z,1000.30
2018-04-23T00:48:56.622Z,1000.34
2018-04-23T00:49:56.592Z,1000.31
2018-04-23T00:51:49.450Z,1000.31
2018-04-23T00:52:49.434Z,1000.32
2018-04-23T00:54:42.308Z,1000.32
2018-04-23T00:55:42.275Z,1000.30
2018-04-23T00:57:35.131Z,1000.33
2018-04-23T00:58:35.118Z,1000.33
2018-04-23T01:00:27.985Z,1000.34
2018-04-23T01:01:27.958Z,1000.37
2018-04-23T01:03:20.812Z,1000.37
2018-04-23T01:04:20.796Z,1000.41
2018-04-23T01:06:13.666Z,1000.36
2018-04-23T01:07:13.637Z,1000.37
2018-04-23T01:09:06.495Z,1000.38
2018-04-23T01:10:06.478Z,1000.36
2018-04-23T01:11:59.351Z,1000.36
2018-04-23T01:12:59.319Z,1000.35
2018-04-23T01:14:52.177Z,1000.36
2018-04-23T01:15:52.158Z,1000.36
2018-04-23T01:17:45.029Z,1000.43
2018-04-23T01:18:44.999Z,1000.41
2018-04-23T01:20:37.866Z,1000.41
2018-04-23T01:21:37.849Z,1000.42
2018-04-23T01:23:30.715Z,1000.45
2018-04-23T01:24:30.691Z,1000.40
2018-04-23T01:26:23.550Z,1000.45
2018-04-23T01:27:23.534Z,1000.41
2018-04-23T01:29:16.402Z,1000.47
2018-04-23T01:30:16.374Z,1000.48
2018-04-23T01:32:09.231Z,1000.54
2018-04-23T01:33:09.217Z,1000.52
2018-04-23T01:35:02.086Z,1000.51
2018-04-23T01:36:02.055Z,1000.51
2018-04-23T01:37:54.913Z,1000.50
2018-04-23T01:38:54.901Z,1000.50
2018-04-23T01:40:47.767Z,1000.50
2018-04-23T01:41:47.735Z,1000.47
2018-04-23T01:43:40.593Z,1000.49
2018-04-23T01:44:40.577Z,1000.50
2018-04-23T01:46:33.448Z,1000.52
2018-04-23T01:47:33.418Z,1000.54
2018-04-23T01:49:26.269Z,1000.53
2018-04-23T01:50:26.253Z,1000.52
2018-04-23T01:52:19.125Z,1000.56
2018-04-23T01:53:19.094Z,1000.56
2018-04-23T01:55:11.954Z,1000.56
2018-04-23T01:56:11.938Z,1000.59
2018-04-23T01:58:04.807Z,1000.60
2018-04-23T01:59:04.778Z,1000.58
2018-04-23T02:00:57.636Z,1000.59
2018-04-23T02:01:57.620Z,1000.60
2018-04-23T02:03:50.488Z,1000.63
2018-04-23T02:04:50.460Z,1000.63
2018-04-23T02:06:43.313Z,1000.65
2018-04-23T02:07:43.297Z,1000.65
2018-04-23T02:09:36.167Z,1000.65
2018-04-23T02:10:36.140Z,1000.65
2018-04-23T02:12:28.994Z,1000.62
2018-04-23T02:13:28.976Z,1000.65
2018-04-23T02:15:21.856Z,1000.64
2018-04-23T02:16:21.818Z,1000.64
2018-04-23T02:18:14.681Z,1000.69
2018-04-23T02:19:14.660Z,1000.66
2018-04-23T02:21:07.531Z,1000.65
2018-04-23T02:22:07.502Z,1000.64
2018-04-23T02:24:00.355Z,1000.66
2018-04-23T02:25:00.339Z,1000.67
2018-04-23T02:26:53.204Z,1000.65
2018-04-23T02:27:53.179Z,1000.67
2018-04-23T02:29:46.039Z,1000.68
2018-04-23T02:30:46.024Z,1000.64
2018-04-23T02:32:38.885Z,1000.60
2018-04-23T02:33:38.856Z,1000.64
2018-04-23T02:35:31.721Z,1000.56
2018-04-23T02:36:31.698Z,1000.65
2018-04-23T02:38:24.592Z,1000.56
2018-04-23T02:39:24.550Z,1000.55
2018-04-23T02:41:17.399Z,1000.55
2018-04-23T02:42:17.382Z,1000.63
2018-04-23T02:44:10.252Z,1000.56
2018-04-23T02:45:10.223Z,1000.53
2018-04-23T02:47:03.083Z,1000.60
2018-04-23T02:48:03.065Z,1000.60
2018-04-23T02:49:55.936Z,1000.61
2018-04-23T02:50:55.907Z,1000.56
2018-04-23T02:52:48.760Z,1000.57
2018-04-23T02:53:48.744Z,1000.57
2018-04-23T02:55:41.612Z,1000.56
2018-04-23T02:56:41.585Z,1000.54
2018-04-23T02:58:34.443Z,1000.50
2018-04-23T02:59:34.425Z,1000.52
2018-04-23T03:01:27.298Z,1000.52
2018-04-23T03:02:27.266Z,1000.50
2018-04-23T03:04:20.132Z,1000.55
2018-04-23T03:05:20.115Z,1000.48
2018-04-23T03:07:12.976Z,1000.54
2018-04-23T03:08:12.948Z,1000.62
2018-04-23T03:10:05.806Z,1000.54
2018-04-23T03:11:05.786Z,1000.56
2018-04-23T03:12:58.658Z,1000.56
2018-04-23T03:13:58.626Z,1000.54
2018-04-23T03:15:51.486Z,1000.49
2018-04-23T03:16:51.469Z,1000.48
2018-04-23T03:18:44.336Z,1000.58
2018-04-23T03:19:44.308Z,1000.51
2018-04-23T03:21:37.168Z,1000.57
2018-04-23T03:22:37.158Z,1000.49
2018-04-23T03:24:30.023Z,1000.52
2018-04-23T03:25:29.993Z,1000.54
2018-04-23T03:27:22.854Z,1000.46
2018-04-23T03:28:22.831Z,1000.47
2018-04-23T03:30:15.699Z,1000.48
2018-04-23T03:31:15.670Z,1000.47
2018-04-23T03:33:08.524Z,1000.45
2018-04-23T03:34:08.508Z,1000.46
2018-04-23T03:36:01.376Z,1000.50
2018-04-23T03:37:01.346Z,1000.54
2018-04-23T03:38:54.208Z,1000.52
2018-04-23T03:39:54.191Z,1000.49
2018-04-23T03:41:47.063Z,1000.50
2018-04-23T03:42:47.037Z,1000.58
2018-04-23T03:44:39.895Z,1000.57
2018-04-23T03:45:39.880Z,1000.57
2018-04-23T03:47:32.746Z,1000.56
2018-04-23T03:48:32.714Z,1000.54
2018-04-23T03:50:25.575Z,1000.56
2018-04-23T03:51:25.554Z,1000.57
2018-04-23T03:53:18.428Z,1000.56
2018-04-23T03:54:18.396Z,1000.57
2018-04-23T03:56:11.255Z,1000.57
2018-04-23T03:57:11.238Z,1000.53
2018-04-23T03:59:04.107Z,1000.51
2018-04-23T04:00:04.079Z,1000.55
2018-04-23T04:01:56.943Z,1000.54
2018-04-23T04:02:56.925Z,1000.58
2018-04-23T04:04:49.793Z,1000.57
2018-04-23T04:05:49.764Z,1000.56
2018-04-23T04:07:42.623Z,1000.57
2018-04-23T04:08:42.607Z,1000.53
2018-04-23T04:10:35.477Z,1000.55
2018-04-23T04:11:35.448Z,1000.55
2018-04-23T04:13:28.305Z,1000.56
2018-04-23T04:14:28.293Z,1000.54
2018-04-23T04:16:21.298Z,1000.58
2018-04-23T04:17:21.148Z,1000.63
2018-04-23T04:19:14.008Z,1000.59
2018-04-23T04:20:13.995Z,1000.61
2018-04-23T04:22:06.872Z,1000.64
2018-04-23T04:23:06.845Z,1000.62
2018-04-23T04:24:59.721Z,1000.67
2018-04-23T04:25:59.702Z,1000.64
2018-04-23T04:27:52.573Z,1000.66
2018-04-23T04:28:52.544Z,1000.65
2018-04-23T04:30:45.399Z,1000.69
2018-04-23T04:31:45.381Z,1000.72
2018-04-23T04:33:38.251Z,1000.74
2018-04-23T04:34:38.218Z,1000.77
2018-04-23T04:36:31.076Z,1000.76
2018-04-23T04:37:31.058Z,1000.74
2018-04-23T04:39:23.928Z,1000.74
2018-04-23T04:40:23.901Z,1000.77
2018-04-23T04:42:16.760Z,1000.78
2018-04-23T04:43:16.743Z,1000.69
2018-04-23T04:45:09.610Z,1000.73
2018-04-23T04:46:09.582Z,1000.72
2018-04-23T04:48:02.436Z,1000.71
2018-04-23T04:49:02.424Z,1000.71
2018-04-23T04:50:55.299Z,1000.70
2018-04-23T04:51:55.271Z,1000.73
2018-04-23T04:53:48.132Z,1000.75
2018-04-23T04:54:48.111Z,1000.78
2018-04-23T04:56:40.981Z,1000.76
2018-04-23T04:57:40.954Z,1000.74
2018-04-23T04:59:33.813Z,1000.74
2018-04-23T05:00:33.796Z,1000.77
2018-04-23T05:02:26.673Z,1000.82
2018-04-23T05:03:26.645Z,1000.78
2018-04-23T05:05:19.502Z,1000.81
2018-04-23T05:06:19.487Z,1000.78
2018-04-23T05:08:12.362Z,1000.81
2018-04-23T05:09:12.328Z,1000.84
2018-04-23T05:11:05.194Z,1000.79
2018-04-23T05:12:05.177Z,1000.79
2018-04-23T05:13:58.055Z,1000.80
2018-04-23T05:14:58.024Z,1000.80
2018-04-23T05:16:50.887Z,1000.83
2018-04-23T05:17:50.870Z,1000.82
2018-04-23T05:19:43.743Z,1000.84
2018-04-23T05:20:43.716Z,1000.83
2018-04-23T05:22:36.582Z,1000.84
2018-04-23T05:23:36.572Z,1000.85
2018-04-23T05:25:29.442Z,1000.88
2018-04-23T05:26:29.414Z,1000.89
2018-04-23T05:28:22.282Z,1000.85
2018-04-23T05:29:22.261Z,1000.89
2018-04-23T05:31:15.141Z,1000.87
2018-04-23T05:32:15.113Z,1000.91
2018-04-23T05:34:07.976Z,1000.93
2018-04-23T05:35:07.962Z,1000.98
2018-04-23T05:37:00.836Z,1001.01
2018-04-23T05:38:00.810Z,1001.11
2018-04-23T05:39:53.675Z,1001.11
2018-04-23T05:40:53.661Z,1001.11
2018-04-23T05:42:46.539Z,1001.10
2018-04-23T05:43:46.513Z,1001.13
2018-04-23T05:45:39.445Z,1001.10
2018-04-23T05:46:39.368Z,1001.10
2018-04-23T05:48:32.247Z,1001.14
2018-04-23T05:49:32.222Z,1001.20
2018-04-23T05:51:25.088Z,1001.28
2018-04-23T05:52:25.076Z,1001.31
2018-04-23T05:54:17.956Z,1001.38
2018-04-23T05:55:17.928Z,1001.40
2018-04-23T05:57:10.785Z,1001.50
2018-04-23T05:58:10.770Z,1001.52
2018-04-23T06:00:03.648Z,1001.59
2018-04-23T06:01:03.623Z,1001.58
2018-04-23T06:02:56.499Z,1001.68
2018-04-23T06:03:56.478Z,1001.67
2018-04-23T06:05:49.353Z,1001.68
2018-04-23T06:06:49.326Z,1001.61
2018-04-23T06:08:42.194Z,1001.64
2018-04-23T06:09:42.177Z,1001.65
2018-04-23T06:11:35.063Z,1001.64
2018-04-23T06:12:35.038Z,1001.61
2018-04-23T06:14:27.950Z,1001.60
2018-04-23T06:15:27.886Z,1001.62
2018-04-23T06:17:20.766Z,1001.66
2018-04-23T06:18:20.742Z,1001.61
2018-04-23T06:20:13.617Z,1001.63
2018-04-23T06:21:13.587Z,1001.61
2018-04-23T06:23:06.470Z,1001.66
2018-04-23T06:24:06.444Z,1001.66
2018-04-23T06:25:59.318Z,1001.73
2018-04-23T06:26:59.308Z,1001.68
2018-04-23T06:28:52.201Z,1001.71
2018-04-23T06:29:52.176Z,1001.71
2018-04-23T06:31:45.049Z,1001.75
2018-04-23T06:32:45.050Z,1001.87
2018-04-23T06:34:38.489Z,1001.91
2018-04-23T06:35:37.892Z,1001.88
2018-04-23T06:37:30.763Z,1001.99
2018-04-23T06:38:30.749Z,1002.03
2018-04-23T06:40:23.630Z,1002.12
2018-04-23T06:41:23.602Z,1002.12
2018-04-23T06:43:16.470Z,1002.16
2018-04-23T06:44:16.455Z,1002.20
2018-04-23T06:46:09.398Z,1002.13
2018-04-23T06:47:09.319Z,1002.16
2018-04-23T06:49:02.183Z,1002.20
2018-04-23T06:50:02.170Z,1002.22
2018-04-23T06:51:55.048Z,1002.29
2018-04-23T06:52:55.023Z,1002.41
2018-04-23T06:54:47.895Z,1002.60
2018-04-23T06:55:47.878Z,1002.64
2018-04-23T06:57:40.755Z,1002.77
2018-04-23T06:58:40.729Z,1002.86
2018-04-23T07:00:33.596Z,1002.94
2018-04-23T07:01:33.580Z,1002.94
2018-04-23T07:03:26.457Z,1002.90
2018-04-23T07:04:26.427Z,1002.95
2018-04-23T07:06:19.288Z,1002.92
2018-04-23T07:07:19.273Z,1002.94
2018-04-23T07:09:12.144Z,1002.79
2018-04-23T07:10:12.113Z,1002.81
2018-04-23T07:12:04.975Z,1002.82
2018-04-23T07:13:04.955Z,1002.78
2018-04-23T07:14:57.826Z,1002.74
2018-04-23T07:15:57.794Z,1002.77
2018-04-23T07:17:50.650Z,1002.75
2018-04-23T07:18:50.634Z,1002.73
2018-04-23T07:20:43.505Z,1002.81
2018-04-23T07:21:43.473Z,1002.81
2018-04-23T07:23:36.329Z,1002.87
2018-04-23T07:24:36.313Z,1002.86
2018-04-23T07:26:29.180Z,1002.84
2018-04-23T07:27:29.149Z,1002.86
2018-04-23T07:29:22.062Z,1002.87
2018-04-23T07:30:21.989Z,1002.81
2018-04-23T07:32:14.867Z,1002.90
2018-04-23T07:33:14.834Z,1002.90
2018-04-23T07:35:07.687Z,1002.94
2018-04-23T07:36:07.671Z,1002.96
2018-04-23T07:38:00.535Z,1002.98
2018-04-23T07:39:00.506Z,1002.97
2018-04-23T07:40:53.361Z,1003.07
2018-04-23T07:41:53.344Z,1003.08
2018-04-23T07:43:46.212Z,1003.05
2018-04-23T07:44:46.182Z,1003.13
2018-04-23T07:46:39.042Z,1003.11
2018-04-23T07:47:39.025Z,1003.20
2018-04-23T07:49:31.889Z,1003.17
2018-04-23T07:50:31.859Z,1003.15
2018-04-23T07:52:24.723Z,1003.16
2018-04-23T07:53:24.703Z,1003.12
2018-04-23T07:55:17.580Z,1003.07
2018-04-23T07:56:17.546Z,1003.02
2018-04-23T07:58:10.407Z,1003.13
2018-04-23T07:59:10.384Z,1003.10
2018-04-23T08:01:03.263Z,1003.07
2018-04-23T08:02:03.231Z,1003.08
2018-04-23T08:03:56.091Z,1003.08
2018-04-23T08:04:56.068Z,1003.09
2018-04-23T08:06:48.988Z,1003.10
2018-04-23T08:07:48.906Z,1003.15
2018-04-23T08:09:41.764Z,1003.13
2018-04-23T08:10:41.746Z,1003.14
2018-04-23T08:12:34.613Z,1003.13
2018-04-23T08:13:34.583Z,1003.14
2018-04-23T08:15:27.446Z,1003.21
2018-04-23T08:16:27.427Z,1003.18
2018-04-23T08:18:20.299Z,1003.20
2018-04-23T08:19:20.268Z,1003.23
2018-04-23T08:21:13.138Z,1003.18
2018-04-23T08:22:13.119Z,1003.15
2018-04-23T08:24:05.991Z,1003.20
2018-04-23T08:25:05.962Z,1003.20
2018-04-23T08:26:58.821Z,1003.18
2018-04-23T08:27:58.803Z,1003.18
2018-04-23T08:29:51.671Z,1003.19
2018-04-23T08:30:51.641Z,1003.24
2018-04-23T08:32:44.502Z,1003.24
2018-04-23T08:33:44.488Z,1003.25
2018-04-23T08:35:37.360Z,1003.27
2018-04-23T08:36:37.327Z,1003.29
2018-04-23T08:38:30.189Z,1003.32
2018-04-23T08:39:30.172Z,1003.29
2018-04-23T08:41:23.045Z,1003.31
2018-04-23T08:42:23.020Z,1003.29
2018-04-23T08:44:15.880Z,1003.43
2018-04-23T08:45:15.860Z,1003.40
2018-04-23T08:47:08.736Z,1003.43
2018-04-23T08:48:08.713Z,1003.42
2018-04-23T08:50:01.572Z,1003.47
2018-04-23T08:51:01.555Z,1003.53
2018-04-23T08:52:54.429Z,1003.52
2018-04-23T08:53:54.405Z,1003.61
2018-04-23T08:55:47.258Z,1003.66
2018-04-23T08:56:47.247Z,1003.64
2018-04-23T08:58:40.115Z,1003.66
2018-04-23T08:59:40.085Z,1003.66
2018-04-23T09:01:32.974Z,1003.63
2018-04-23T09:02:32.931Z,1003.62
2018-04-23T09:04:25.807Z,1003.57
2018-04-23T09:05:25.776Z,1003.52
2018-04-23T09:07:18.639Z,1003.49
2018-04-23T09:08:18.627Z,1003.41
2018-04-23T09:10:11.503Z,1003.43
2018-04-23T09:11:11.470Z,1003.39
2018-04-23T09:13:04.335Z,1003.40
2018-04-23T09:14:04.316Z,1003.49
2018-04-23T09:15:57.205Z,1003.54
2018-04-23T09:16:57.161Z,1003.59
2018-04-23T09:18:50.021Z,1003.58
2018-04-23T09:19:50.003Z,1003.56
2018-04-23T09:21:42.882Z,1003.55
2018-04-23T09:22:42.850Z,1003.55
2018-04-23T09:24:35.707Z,1003.52
2018-04-23T09:25:35.691Z,1003.53
2018-04-23T09:27:28.561Z,1003.66
2018-04-23T09:28:28.534Z,1003.64
2018-04-23T09:30:21.396Z,1003.58
2018-04-23T09:31:21.376Z,1003.50
2018-04-23T09:33:14.252Z,1003.60
2018-04-23T09:34:14.224Z,1004.00
2018-04-23T09:36:07.084Z,1004.71
2018-04-23T09:37:07.067Z,1003.95
2018-04-23T09:38:59.967Z,1004.89
2018-04-23T09:39:59.919Z,1005.32
2018-04-23T09:41:52.786Z,1004.63
2018-04-23T09:42:52.774Z,1005.02
2018-04-23T09:44:45.657Z,1005.19
2018-04-23T09:45:45.632Z,1004.98
2018-04-23T09:47:38.498Z,1005.30
2018-04-23T09:48:38.485Z,1004.71
2018-04-23T09:50:31.367Z,1004.82
2018-04-23T09:51:31.348Z,1004.31
2018-04-23T09:53:24.215Z,1003.99
2018-04-23T09:54:24.207Z,1003.69
2018-04-23T09:56:17.096Z,1003.71
2018-04-23T09:57:17.064Z,1003.76
2018-04-23T09:59:09.932Z,1003.66
2018-04-23T10:00:09.923Z,1003.53
2018-04-23T10:02:02.806Z,1003.49
2018-04-23T10:03:02.782Z,1003.50
2018-04-23T10:04:55.656Z,1003.82
2018-04-23T10:05:55.645Z,1003.69
2018-04-23T10:07:48.521Z,1003.73
2018-04-23T10:08:48.501Z,1003.83
2018-04-23T10:10:41.439Z,1003.79
2018-04-23T10:11:41.352Z,1003.76
2018-04-23T10:13:34.237Z,1003.76
2018-04-23T10:14:34.213Z,1003.70
2018-04-23T10:16:27.088Z,1003.74
2018-04-23T10:17:27.076Z,1003.75
2018-04-23T10:19:19.956Z,1003.72
2018-04-23T10:20:19.933Z,1003.68
2018-04-23T10:22:12.811Z,1003.66
2018-04-23T10:23:12.790Z,1003.69
2018-04-23T10:25:05.673Z,1003.92
2018-04-23T10:26:05.656Z,1003.79
2018-04-23T10:27:58.522Z,1003.84
2018-04-23T10:28:58.511Z,1003.75
2018-04-23T10:30:51.395Z,1003.71
2018-04-23T10:31:51.371Z,1003.62
2018-04-23T10:33:44.240Z,1003.72
2018-04-23T10:34:44.228Z,1003.76
2018-04-23T10:36:37.114Z,1003.92
2018-04-23T10:37:37.087Z,1004.03
2018-04-23T10:39:29.955Z,1003.97
2018-04-23T10:40:29.944Z,1003.98
2018-04-23T10:42:22.836Z,1003.93
2018-04-23T10:43:22.810Z,1003.93
2018-04-23T10:45:15.681Z,1003.72
2018-04-23T10:46:15.672Z,1003.72
2018-04-23T10:48:08.558Z,1003.72
2018-04-23T10:49:08.540Z,1003.69
2018-04-23T10:51:01.466Z,1003.60
2018-04-23T10:52:01.403Z,1003.46
2018-04-23T10:53:54.284Z,1003.48
2018-04-23T10:54:54.261Z,1003.49
2018-04-23T10:56:47.135Z,1003.48
2018-04-23T10:57:47.120Z,1003.64
2018-04-23T10:59:40.003Z,1003.54
2018-04-23T11:00:39.974Z,1003.60
2018-04-23T11:02:32.840Z,1003.50
2018-04-23T11:03:32.828Z,1003.63
2018-04-23T11:05:25.704Z,1003.60
2018-04-23T11:06:25.679Z,1003.48
2018-04-23T11:08:18.543Z,1003.55
2018-04-23T11:09:18.530Z,1003.57
2018-04-23T11:11:11.415Z,1003.55
2018-04-23T11:12:11.384Z,1003.54
2018-04-23T11:14:04.247Z,1003.51
2018-04-23T11:15:04.237Z,1003.53
2018-04-23T11:16:57.110Z,1003.52
2018-04-23T11:17:57.085Z,1003.54
2018-04-23T11:19:49.946Z,1003.56
2018-04-23T11:20:49.932Z,1003.60
2018-04-23T11:22:42.809Z,1003.58
2018-04-23T11:23:42.782Z,1003.55
2018-04-23T11:25:35.647Z,1003.61
2018-04-23T11:26:35.633Z,1003.62
2018-04-23T11:28:28.508Z,1003.63
2018-04-23T11:29:28.481Z,1003.56
2018-04-23T11:31:21.351Z,1003.62
2018-04-23T11:32:21.338Z,1003.64
2018-04-23T11:34:14.212Z,1003.66
2018-04-23T11:35:14.186Z,1003.62
2018-04-23T11:37:07.048Z,1003.57
2018-04-23T11:38:07.035Z,1003.64
2018-04-23T11:39:59.910Z,1003.57
2018-04-23T11:40:59.884Z,1003.54
2018-04-23T11:42:52.758Z,1003.56
2018-04-23T11:43:52.742Z,1003.60
2018-04-23T11:45:45.643Z,1003.59
2018-04-23T11:46:45.594Z,1003.55
2018-04-23T11:48:38.461Z,1003.52
2018-04-23T11:49:38.449Z,1003.50
2018-04-23T11:51:31.335Z,1003.54
2018-04-23T11:52:31.303Z,1003.47
2018-04-23T11:54:24.168Z,1003.48
2018-04-23T11:55:24.154Z,1003.49
2018-04-23T11:57:17.033Z,1003.48
2018-04-23T11:58:17.011Z,1003.44
2018-04-23T12:00:09.871Z,1003.51
2018-04-23T12:01:09.858Z,1003.46
2018-04-23T12:03:02.809Z,1003.55
2018-04-23T12:04:02.711Z,1003.49
2018-04-23T12:05:55.579Z,1003.56
2018-04-23T12:06:55.562Z,1003.56
2018-04-23T12:08:48.438Z,1003.62
2018-04-23T12:09:48.413Z,1003.56
2018-04-23T12:11:41.284Z,1003.65
2018-04-23T12:12:41.266Z,1003.60
2018-04-23T12:14:34.149Z,1003.44
2018-04-23T12:15:34.128Z,1003.53
2018-04-23T12:17:26.985Z,1003.70
2018-04-23T12:18:26.970Z,1003.57
2018-04-23T12:20:19.852Z,1003.54
2018-04-23T12:21:19.826Z,1003.60
2018-04-23T12:23:12.695Z,1003.64
2018-04-23T12:24:12.680Z,1003.35
2018-04-23T12:26:05.561Z,1003.93
2018-04-23T12:27:05.535Z,1003.69
2018-04-23T12:28:58.399Z,1003.86
2018-04-23T12:29:58.389Z,1003.88
2018-04-23T12:31:51.273Z,1003.71
2018-04-23T12:32:51.246Z,1003.61
2018-04-23T12:34:44.123Z,1003.63
2018-04-23T12:35:44.110Z,1003.32
2018-04-23T12:37:36.994Z,1003.64
2018-04-23T12:38:36.969Z,1003.63
2018-04-23T12:40:29.842Z,1003.46
2018-04-23T12:41:29.830Z,1003.50
2018-04-23T12:43:22.719Z,1003.83
2018-04-23T12:44:22.690Z,1003.71
2018-04-23T12:46:15.642Z,1003.57
2018-04-23T12:47:15.556Z,1003.52
2018-04-23T12:49:08.441Z,1003.54
2018-04-23T12:50:08.417Z,1003.51
2018-04-23T12:52:01.289Z,1003.50
2018-04-23T12:53:01.283Z,1003.46
2018-04-23T12:54:54.164Z,1003.52
2018-04-23T12:55:54.141Z,1003.47
2018-04-23T12:57:47.014Z,1003.43
2018-04-23T12:58:47.002Z,1003.48
2018-04-23T13:00:39.889Z,1003.37
2018-04-23T13:01:39.889Z,1003.31
2018-04-23T13:03:32.742Z,1003.40
2018-04-23T13:04:32.731Z,1003.33
2018-04-23T13:06:25.610Z,1003.27
2018-04-23T13:07:25.587Z,1003.25
2018-04-23T13:09:18.458Z,1003.24
2018-04-23T13:10:18.449Z,1003.25
2018-04-23T13:12:11.330Z,1003.12
2018-04-23T13:13:11.309Z,1003.17
2018-04-23T13:15:04.187Z,1003.02
2018-04-23T13:16:04.173Z,1002.98
2018-04-23T13:17:57.055Z,1002.93
2018-04-23T13:18:57.034Z,1002.93
2018-04-23T13:20:49.904Z,1002.98
2018-04-23T13:21:49.896Z,1002.86
2018-04-23T13:23:42.781Z,1002.74
2018-04-23T13:24:42.754Z,1002.71
2018-04-23T13:26:35.626Z,1002.67
2018-04-23T13:27:35.617Z,1002.61
2018-04-23T13:29:28.506Z,1002.59
2018-04-23T13:30:28.477Z,1002.67
2018-04-23T13:32:21.352Z,1002.73
2018-04-23T13:33:21.337Z,1002.66
2018-04-23T13:35:14.290Z,1002.71
2018-04-23T13:36:14.202Z,1002.67
2018-04-23T13:38:07.069Z,1002.63
2018-04-23T13:39:07.058Z,1002.59
2018-04-23T13:40:59.943Z,1002.59
2018-04-23T13:41:59.926Z,1002.50
2018-04-23T13:43:52.793Z,1002.58
2018-04-23T13:44:52.782Z,1002.67
2018-04-23T13:46:45.668Z,1002.52
2018-04-23T13:47:45.643Z,1002.36
2018-04-23T13:49:38.514Z,1002.49
2018-04-23T13:50:38.505Z,1002.49
2018-04-23T13:52:31.386Z,1002.53
2018-04-23T13:53:31.364Z,1002.48
2018-04-23T13:55:24.245Z,1002.43
2018-04-23T13:56:24.235Z,1002.45
2018-04-23T13:58:17.121Z,1002.54
2018-04-23T13:59:17.095Z,1002.31
2018-04-23T14:01:09.981Z,1002.30
2018-04-23T14:02:09.964Z,1002.30
2018-04-23T14:04:02.846Z,1002.25
2018-04-23T14:05:02.824Z,1002.27
2018-04-23T14:06:55.710Z,1002.39
2018-04-23T14:07:55.681Z,1002.21
2018-04-23T14:09:48.567Z,1002.16
2018-04-23T14:10:48.541Z,1002.27
2018-04-23T14:12:41.412Z,1002.23
2018-04-23T14:13:41.401Z,1002.31
2018-04-23T14:15:34.282Z,1002.27
2018-04-23T14:16:34.259Z,1002.31
2018-04-23T14:18:27.133Z,1002.20
2018-04-23T14:19:27.118Z,1002.07
2018-04-23T14:21:20.003Z,1002.11
2018-04-23T14:22:19.979Z,1002.11
2018-04-23T14:24:12.852Z,1002.15
2018-04-23T14:25:12.834Z,1002.18
2018-04-23T14:27:05.716Z,1002.05
2018-04-23T14:28:05.698Z,1002.04
2018-04-23T14:29:58.564Z,1002.16
2018-04-23T14:30:58.553Z,1002.09
2018-04-23T14:32:51.433Z,1002.25
2018-04-23T14:33:51.407Z,1002.22
2018-04-23T14:35:44.275Z,1002.10
2018-04-23T14:36:44.262Z,1002.06
2018-04-23T14:38:37.143Z,1002.20
2018-04-23T14:39:37.116Z,1002.32
2018-04-23T14:41:29.995Z,1002.22
2018-04-23T14:42:29.978Z,1002.19
2018-04-23T14:44:22.854Z,1002.35
2018-04-23T14:45:22.872Z,1002.41
2018-04-23T14:47:15.697Z,1002.18
2018-04-23T14:48:15.684Z,1002.12
2018-04-23T14:50:08.578Z,1002.27
2018-04-23T14:51:08.547Z,1002.19
2018-04-23T14:53:01.415Z,1002.37
2018-04-23T14:54:01.395Z,1002.30
2018-04-23T14:55:54.274Z,1002.28
2018-04-23T14:56:54.249Z,1002.32
2018-04-23T14:58:47.118Z,1002.25
2018-04-23T14:59:47.101Z,1002.07
2018-04-23T15:01:39.981Z,1002.16
2018-04-23T15:02:39.953Z,1002.25
2018-04-23T15:04:32.826Z,1002.25
2018-04-23T15:05:32.805Z,1002.30
2018-04-23T15:07:25.682Z,1002.27
2018-04-23T15:08:25.661Z,1002.35
2018-04-23T15:10:18.531Z,1002.20
2018-04-23T15:11:18.520Z,1002.39
2018-04-23T15:13:11.400Z,1002.32
2018-04-23T15:14:11.369Z,1002.26
2018-04-23T15:16:04.240Z,1002.40
2018-04-23T15:17:04.223Z,1002.42
2018-04-23T15:18:57.099Z,1002.36
2018-04-23T15:19:57.072Z,1002.21
2018-04-23T15:21:49.943Z,1002.28
2018-04-23T15:22:49.926Z,1002.29
2018-04-23T15:24:42.832Z,1002.47
2018-04-23T15:25:42.773Z,1002.43
2018-04-23T15:27:35.646Z,1002.48
2018-04-23T15:28:35.625Z,1002.49
2018-04-23T15:30:28.503Z,1002.55
2018-04-23T15:31:28.472Z,1002.55
2018-04-23T15:33:21.340Z,1002.43
2018-04-23T15:34:21.323Z,1002.45
2018-04-23T15:36:14.210Z,1002.59
2018-04-23T15:37:14.179Z,1002.61
2018-04-23T15:39:07.040Z,1002.73
2018-04-23T15:40:07.028Z,1002.79
2018-04-23T15:41:59.981Z,1002.80
2018-04-23T15:42:59.887Z,1002.85
2018-04-23T15:44:52.745Z,1002.90
2018-04-23T15:45:52.730Z,1002.96
2018-04-23T15:47:45.605Z,1003.00
2018-04-23T15:48:45.581Z,1002.73
2018-04-23T15:50:38.445Z,1002.97
2018-04-23T15:51:38.433Z,1003.09
2018-04-23T15:53:31.312Z,1002.99
2018-04-23T15:54:31.283Z,1003.14
2018-04-23T15:56:24.140Z,1003.15
2018-04-23T15:57:24.131Z,1003.11
2018-04-23T15:59:17.078Z,1003.16
2018-04-23T16:00:16.973Z,1003.14
2018-04-23T16:02:09.835Z,1003.15
2018-04-23T16:03:09.817Z,1003.06
2018-04-23T16:05:02.692Z,1003.02
2018-04-23T16:06:02.667Z,1002.99
2018-04-23T16:07:55.525Z,1002.83
2018-04-23T16:08:55.511Z,1002.85
2018-04-23T16:10:48.386Z,1003.02
2018-04-23T16:11:48.358Z,1002.96
2018-04-23T16:13:41.217Z,1002.88
2018-04-23T16:14:41.201Z,1002.99
2018-04-23T16:16:34.081Z,1003.08
2018-04-23T16:17:34.069Z,1002.91
2018-04-23T16:19:26.907Z,1003.03
2018-04-23T16:20:26.893Z,1002.98
2018-04-23T16:22:19.775Z,1002.99
2018-04-23T16:23:19.750Z,1002.99
2018-04-23T16:25:12.611Z,1002.82
2018-04-23T16:26:12.595Z,1002.92
2018-04-23T16:28:05.475Z,1002.96
2018-04-23T16:29:05.448Z,1002.82
2018-04-23T16:30:58.311Z,1002.82
2018-04-23T16:31:58.292Z,1002.90
2018-04-23T16:33:51.180Z,1002.84
2018-04-23T16:34:51.138Z,1002.71
2018-04-23T16:36:44.001Z,1002.75
2018-04-23T16:37:43.985Z,1002.62
2018-04-23T16:39:36.873Z,1002.67
2018-04-23T16:40:36.829Z,1002.54
2018-04-23T16:42:29.690Z,1002.67
2018-04-23T16:43:29.679Z,1002.65
2018-04-23T16:45:22.554Z,1002.62
2018-04-23T16:46:22.522Z,1002.70
2018-04-23T16:48:15.378Z,1002.68
2018-04-23T16:49:15.362Z,1002.50
2018-04-23T16:51:08.249Z,1002.63
2018-04-23T16:52:08.223Z,1002.54
2018-04-23T16:54:01.078Z,1002.69
2018-04-23T16:55:01.062Z,1002.66
2018-04-23T16:56:53.932Z,1002.63
2018-04-23T16:57:53.905Z,1002.53
2018-04-23T16:59:46.767Z,1002.59
2018-04-23T17:00:46.750Z,1002.49
2018-04-23T17:02:39.620Z,1002.56
2018-04-23T17:03:39.588Z,1002.74
2018-04-23T17:05:32.453Z,1002.44
2018-04-23T17:06:32.433Z,1002.66
2018-04-23T17:08:25.312Z,1002.67
2018-04-23T17:09:25.298Z,1002.69
2018-04-23T17:11:18.136Z,1002.72
2018-04-23T17:12:18.122Z,1002.73
2018-04-23T17:14:10.995Z,1002.74
2018-04-23T17:15:10.961Z,1002.72
2018-04-23T17:17:03.823Z,1002.84
2018-04-23T17:18:03.806Z,1002.96
2018-04-23T17:19:56.675Z,1003.01
2018-04-23T17:20:56.645Z,1002.98
2018-04-23T17:22:49.577Z,1002.97
2018-04-23T17:23:49.487Z,1003.03
2018-04-23T17:25:42.361Z,1002.94